17:42
Airports
Links
Donate
Help keep this website running!
PayPal
Bitcoin
METAR
KVSF 191654Z AUTO 15009G17KT 10SM CLR 03/M04 A3037 RMK AO2 SLP292 T00331039
Current Weather Conditions at KVSF
VFR 16:54:00 19-02-18
Automated station, no observer
Altimeter:30.37 hg
Temp:3.3°c 37°f
Dew point:-3.9°c 27°f
Wind:9 knots, 10.4 mph, 5 m/s, from 150°
Visibility:10.0 statute miles
(CLR) Clear
Past METAR reports
VFR 15:54:00 19-02-18
Automated station, no observer
Altimeter:30.40 hg
Temp:1.7°c 34°f
Dew point:-5.0°c 23°f
Wind:7 knots, 8.1 mph, 4 m/s, from 130°
Visibility:10.0 statute miles
(CLR) Clear
KVSF 191554Z AUTO 13007KT 10SM CLR 02/M05 A3040 RMK AO2 SLP304 T00171050
VFR 14:54:00 19-02-18
Automated station, no observer
Altimeter:30.44 hg
Temp:0.0°c 32°f
Dew point:-5.6°c 23°f
Wind:8 knots, 9.2 mph, 4 m/s, from 140°
Visibility:10.0 statute miles
(CLR) Clear
KVSF 191454Z AUTO 14008KT 10SM CLR 00/M06 A3044 RMK AO2 SLP315 T00001056 58012
VFR 13:54:00 19-02-18
Automated station, no observer
Altimeter:30.46 hg
Temp:-5.6°c 23°f
Dew point:-7.8°c 19°f
Wind:4 knots, 4.6 mph, 2 m/s, from 80°
Visibility:10.0 statute miles
(CLR) Clear
KVSF 191354Z AUTO 08004KT 10SM CLR M06/M08 A3046 RMK AO2 SLP327 T10561078
VFR 12:54:00 19-02-18
Automated station, no observer
Altimeter:30.46 hg
Temp:-8.9°c 18°f
Dew point:-9.4°c 16°f
Wind:0 knots, 0 mph, 0 m/s,
Variable direction
Visibility:10.0 statute miles
(CLR) Clear
KVSF 191254Z AUTO 00000KT 10SM CLR M09/M09 A3046 RMK AO2 SLP327 T10891094
VFR 11:54:00 19-02-18
Automated station, no observer
Altimeter:30.47 hg
Temp:-11.1°c 12°f
Dew point:-12.2°c 10°f
Wind:0 knots, 0 mph, 0 m/s,
Variable direction
Visibility:10.0 statute miles
(CLR) Clear
KVSF 191154Z AUTO 00000KT 10SM CLR M11/M12 A3047 RMK AO2 SLP330 I1000 I6001 T11111122 11078 21111 58003
TAF
No TAF for KVSF
Forecast at KVSF
No Forecast Reports for KVSF